Ana Sayfa
METAR-TAF:

METAR-TAF

Havaalanları :

Ercan Uluslararası Havalimanı

Lefkoşa, Kıbrıs

Enlem: 35-09N, Boylam: 033-30E, yükseklik: 91 m

Güncel hava durumu gözlemi

Rapor saat 03:50 UTC de 35 dakika önce yapıldı.
Rüzgar batıdan 5 kt
Sıcaklık 13°C
Nem 77%
Basınç 1018 hPa
Görüş mesafesi 10 km veya daha fazla
1500 m altında bulut yok ve kümülonimbus yok

METAR: LCEN 170350Z 27005KT CAVOK 13/09 Q1018 NOSIG RMK RWY11 27006KT

Saat: 06:25 (04:25 UTC)

Tahmin

Rapor saat 22:40 UTC de 5 saat ve 45 dakika önce yapıldı.
Ayın 17'si saat 00 UTC'den ayın 17'si saat 24 UTC'ye kadar geçerli Tahmin
Rüzgar batı/kuzeybatıdan 12 kt
Görüş mesafesi 10 km veya daha fazla
1500 m altında bulut yok ve kümülonimbus yok

TAF: LCEN 162240Z 1700/1724 29012KT CAVOK

4.000'den fazla havaalanı için hava durumu gözlemleri ve tahminleri (METAR ve TAF raporları).

Kullanılabilir istasyonlar harita üzerinde sarı ve kırmızı noktalarla gösterilir.

İstasyonun adını görmek için fareyi noktanın üzerinde gezdirin.

Sonrasında hava gözlem ve tahminlerini görmek için tıklayın.

Haritayı değiştirmek için: yaklaştırmak için siyah artı işaretli yeşil düğmeye ve uzaklaştırmak için de eksi işaretli düğmeye hızla tıklayın; bitişik haritalar için yeşil okları kullanın.


METAR-TAF: